Terminal Aerodrome Forecast
Issued by NWS

Home | Current Version | Previous Version | Text Only | Print | Product List | Glossary On
Versions: 1 2 3 4 5 6 7 8 9 10 11 12 13 14 15 16 17 18 19 20 21
000
FTAK31 PAJN 010500
TAFAJN
TAF
PAJN 010535Z 0106/0206 VRB04KT P6SM SCT150
     FM011200 08010KT P6SM FEW200 WS020/06030KT
     FM011800 08011G18KT P6SM SKC WS020/06030KT
     FM020300 10011KT P6SM SKC=

USA.gov is the U.S. government's official web portal to all federal, state and local government web resources and services.